Aérodrome :
LOGIN :

S'inscrire | Disclaimer

   EN    FR    IT 

 










Légende :    VFR   VFR Marginal   IFR   IFR Intensif   IFR Très Intensif
Visi : 
Plafond : 
>= 8 km
>= 3000ft
5 à 8 km
1000 à 3000 ft
1500m à 5 km
500 à 1000 ft
800 à 1500m
200 à 500 ft
< 800m
< 200 ft
Symboles :   Orages  Brouillard  Fortes neiges  Fortes précipitations  Vent > 20 kt
SIGMETs :   Divers  Orages  Givrage  Turbulence  Onde Orograph.  Cendres Volcan.






- Altitude de l'aérodrome : 336 ft
- Code IATA : GCI


EGJB - Guernsey

DERNIER METAR :
  • 051050Z 32015KT 9999 VCSH FEW014CB SCT018 08/04 Q0984

METARs EXPIRÉS :
  • 051020Z 33015KT 9999 VCSH FEW014CB BKN022 07/05 Q0984 RESHRA
  • 050950Z 30014G25KT 9999 SHRAGS SCT014CB BKN020 06/04 Q0984
  • 050920Z 32013KT 9999 VCSH FEW014CB BKN020 07/04 Q0984
  • 050850Z 32012KT 9999 VCSH FEW016CB BKN022 07/04 Q0983
  • 050820Z 32010KT 9999 -SHRA FEW015 BKN028 07/04 Q0983

TAF AMD TAF EGJB
Valide du 05 à 10h jusqu'au 05 à 18h UTC


051018Z 0510/0518 31009KT 9999 FEW008 SCT016 BKN024
TEMPO 0510/0518 8000 SHRA BKN015CB
PROB40
TEMPO 0510/0515 31015G25KT
PROB30
TEMPO 0510/0518 4000 +SHRAGS BKN010CB
BECMG 0515/0518 05013KT
ATIS : +44 1481 238 957



MET'MAP, la Météo Aéronautique d'un coup d'oeil ! - Copyright ORBIFLY Décembre 2007 - Disclaimer

ORBIFLY MET'MAP TEAM :

Programmation & Développement : Alexandra Zaïnal
Sur une idée originale de : Baudouin d'Aumeries
Assistance à la programmation : Marc-Olivier Méhu
Soutien technique & logistique : Manuel Goepfert

Contact : metmap@orbifly.com




SOURCES & CREDITS :

   NOAA